sensor_id;sensor_type;location;lat;lon;timestamp;pressure;altitude;pressure_sealevel;temperature;humidity
86100;BME280;76724;47.496;19.064;2024-03-23T12:36:24;99423.00;;;20.73;32.23
86100;BME280;76724;47.496;19.064;2024-03-23T12:36:58;99425.69;;;20.73;32.96
86100;BME280;76724;47.496;19.064;2024-03-23T12:37:30;99428.56;;;20.61;32.89
86100;BME280;76724;47.496;19.064;2024-03-23T12:38:04;99420.53;;;20.66;32.83
86100;BME280;76724;47.496;19.064;2024-03-23T12:38:36;99424.34;;;20.75;32.25
86100;BME280;76724;47.496;19.064;2024-03-23T12:39:09;99415.44;;;20.75;32.39
86100;BME280;76724;47.496;19.064;2024-03-23T12:39:41;99413.84;;;20.74;32.88
86100;BME280;76724;47.496;19.064;2024-03-23T12:40:15;99397.69;;;20.79;32.28
86100;BME280;76724;47.496;19.064;2024-03-23T12:40:49;99412.06;;;20.95;32.05
86100;BME280;76724;47.496;19.064;2024-03-23T12:41:22;99406.13;;;20.92;32.68
86100;BME280;76724;47.496;19.064;2024-03-23T12:41:55;99411.00;;;20.96;32.22
86100;BME280;76724;47.496;19.064;2024-03-23T12:42:28;99408.34;;;21.01;32.38
86100;BME280;76724;47.496;19.064;2024-03-23T12:43:01;99410.47;;;20.99;32.51
86100;BME280;76724;47.496;19.064;2024-03-23T12:43:33;99406.94;;;20.93;32.09
86100;BME280;76724;47.496;19.064;2024-03-23T12:44:08;99406.38;;;20.91;32.12
86100;BME280;76724;47.496;19.064;2024-03-23T12:44:44;99407.16;;;20.86;31.47
86100;BME280;76724;47.496;19.064;2024-03-23T12:45:17;99408.81;;;20.87;31.96
86100;BME280;76724;47.496;19.064;2024-03-23T12:45:52;99410.19;;;20.95;32.30
86100;BME280;76724;47.496;19.064;2024-03-23T12:46:25;99396.47;;;21.02;32.14
86100;BME280;76724;47.496;19.064;2024-03-23T12:46:58;99407.56;;;21.05;31.88
86100;BME280;76724;47.496;19.064;2024-03-23T12:47:31;99405.63;;;21.01;32.12
86100;BME280;76724;47.496;19.064;2024-03-23T12:48:03;99399.69;;;20.99;31.72
86100;BME280;76724;47.496;19.064;2024-03-23T12:48:36;99396.19;;;21.03;32.00
86100;BME280;76724;47.496;19.064;2024-03-23T12:49:10;99402.13;;;21.00;31.98
86100;BME280;76724;47.496;19.064;2024-03-23T12:49:42;99400.75;;;20.98;31.88
86100;BME280;76724;47.496;19.064;2024-03-23T12:50:16;99407.47;;;20.90;32.05
86100;BME280;76724;47.496;19.064;2024-03-23T12:50:54;99402.81;;;20.80;31.75
86100;BME280;76724;47.496;19.064;2024-03-23T12:51:28;99394.69;;;20.75;32.25
86100;BME280;76724;47.496;19.064;2024-03-23T12:52:01;99398.47;;;20.74;31.85
86100;BME280;76724;47.496;19.064;2024-03-23T12:52:34;99402.84;;;20.85;31.82
86100;BME280;76724;47.496;19.064;2024-03-23T12:53:06;99405.56;;;20.90;32.01
86100;BME280;76724;47.496;19.064;2024-03-23T12:53:39;99396.69;;;20.90;31.80
86100;BME280;76724;47.496;19.064;2024-03-23T12:54:12;99399.59;;;20.78;32.11
86100;BME280;76724;47.496;19.064;2024-03-23T12:54:45;99400.91;;;20.71;32.06
86100;BME280;76724;47.496;19.064;2024-03-23T12:55:18;99397.63;;;20.69;31.93
86100;BME280;76724;47.496;19.064;2024-03-23T12:55:50;99409.19;;;20.64;32.24
86100;BME280;76724;47.496;19.064;2024-03-23T12:56:23;99403.97;;;20.52;32.77
86100;BME280;76724;47.496;19.064;2024-03-23T12:56:56;99396.16;;;20.51;32.41
86100;BME280;76724;47.496;19.064;2024-03-23T12:57:28;99396.72;;;20.53;32.76
86100;BME280;76724;47.496;19.064;2024-03-23T12:58:01;99398.38;;;20.59;32.33
86100;BME280;76724;47.496;19.064;2024-03-23T12:58:34;99388.94;;;20.56;32.30
86100;BME280;76724;47.496;19.064;2024-03-23T12:59:07;99402.13;;;20.58;32.03
86100;BME280;76724;47.496;19.064;2024-03-23T12:59:40;99399.69;;;20.51;32.79
86100;BME280;76724;47.496;19.064;2024-03-23T13:00:13;99395.38;;;20.50;32.78
86100;BME280;76724;47.496;19.064;2024-03-23T13:00:48;99396.94;;;20.46;32.51
86100;BME280;76724;47.496;19.064;2024-03-23T13:01:21;99399.28;;;20.37;32.76
86100;BME280;76724;47.496;19.064;2024-03-23T13:01:54;99405.25;;;20.45;32.83
86100;BME280;76724;47.496;19.064;2024-03-23T13:02:27;99399.31;;;20.43;32.63
86100;BME280;76724;47.496;19.064;2024-03-23T13:03:01;99398.25;;;20.44;32.58
86100;BME280;76724;47.496;19.064;2024-03-23T13:03:37;99402.84;;;20.43;32.45
86100;BME280;76724;47.496;19.064;2024-03-23T13:04:10;99402.53;;;20.39;32.54
86100;BME280;76724;47.496;19.064;2024-03-23T13:04:44;99390.91;;;20.34;32.36
86100;BME280;76724;47.496;19.064;2024-03-23T13:05:16;99394.72;;;20.38;32.68
86100;BME280;76724;47.496;19.064;2024-03-23T13:05:52;99390.69;;;20.41;32.50
86100;BME280;76724;47.496;19.064;2024-03-23T13:06:25;99393.19;;;20.47;32.41
86100;BME280;76724;47.496;19.064;2024-03-23T13:06:59;99379.22;;;20.50;32.77
86100;BME280;76724;47.496;19.064;2024-03-23T13:07:32;99391.31;;;20.53;32.67
86100;BME280;76724;47.496;19.064;2024-03-23T13:08:05;99382.75;;;20.56;32.79
86100;BME280;76724;47.496;19.064;2024-03-23T13:08:37;99387.59;;;20.54;32.49
86100;BME280;76724;47.496;19.064;2024-03-23T13:09:11;99388.63;;;20.53;31.94
86100;BME280;76724;47.496;19.064;2024-03-23T13:09:44;99377.81;;;20.48;32.09
86100;BME280;76724;47.496;19.064;2024-03-23T13:10:17;99393.22;;;20.52;32.30
86100;BME280;76724;47.496;19.064;2024-03-23T13:10:53;99384.59;;;20.50;32.74
86100;BME280;76724;47.496;19.064;2024-03-23T13:11:25;99382.72;;;20.51;32.57
86100;BME280;76724;47.496;19.064;2024-03-23T13:11:58;99374.91;;;20.49;32.40
86100;BME280;76724;47.496;19.064;2024-03-23T13:12:31;99384.91;;;20.54;32.18
86100;BME280;76724;47.496;19.064;2024-03-23T13:13:24;99383.47;;;20.46;31.79
86100;BME280;76724;47.496;19.064;2024-03-23T13:13:56;99387.47;;;20.44;31.87
86100;BME280;76724;47.496;19.064;2024-03-23T13:14:29;99383.09;;;20.32;31.88
86100;BME280;76724;47.496;19.064;2024-03-23T13:15:03;99384.72;;;20.33;31.64
86100;BME280;76724;47.496;19.064;2024-03-23T13:15:36;99386.31;;;20.34;32.17
86100;BME280;76724;47.496;19.064;2024-03-23T13:16:09;99383.13;;;20.37;31.74
86100;BME280;76724;47.496;19.064;2024-03-23T13:16:42;99383.69;;;20.39;32.38
86100;BME280;76724;47.496;19.064;2024-03-23T13:17:15;99367.22;;;20.31;32.26
86100;BME280;76724;47.496;19.064;2024-03-23T13:17:48;99385.75;;;20.27;31.88
86100;BME280;76724;47.496;19.064;2024-03-23T13:18:20;99379.25;;;20.23;32.27
86100;BME280;76724;47.496;19.064;2024-03-23T13:18:53;99384.09;;;20.21;32.71
86100;BME280;76724;47.496;19.064;2024-03-23T13:19:26;99380.63;;;20.26;32.60
86100;BME280;76724;47.496;19.064;2024-03-23T13:20:00;99375.25;;;20.26;32.32
86100;BME280;76724;47.496;19.064;2024-03-23T13:20:35;99374.44;;;20.25;32.30
86100;BME280;76724;47.496;19.064;2024-03-23T13:21:08;99374.13;;;20.22;32.14
86100;BME280;76724;47.496;19.064;2024-03-23T13:21:41;99371.47;;;20.27;31.94
86100;BME280;76724;47.496;19.064;2024-03-23T13:22:14;99373.84;;;20.23;32.06
86100;BME280;76724;47.496;19.064;2024-03-23T13:22:47;99374.94;;;20.22;31.95
86100;BME280;76724;47.496;19.064;2024-03-23T13:23:20;99371.75;;;20.30;31.89
86100;BME280;76724;47.496;19.064;2024-03-23T13:23:53;99374.44;;;20.30;31.93
86100;BME280;76724;47.496;19.064;2024-03-23T13:24:30;99362.59;;;20.26;31.85
86100;BME280;76724;47.496;19.064;2024-03-23T13:25:03;99367.41;;;20.24;32.04
86100;BME280;76724;47.496;19.064;2024-03-23T13:25:36;99372.56;;;20.26;32.38
86100;BME280;76724;47.496;19.064;2024-03-23T13:26:09;99369.28;;;20.24;32.30
86100;BME280;76724;47.496;19.064;2024-03-23T13:26:46;99355.59;;;20.25;32.29
86100;BME280;76724;47.496;19.064;2024-03-23T13:27:19;99365.53;;;20.25;32.25
86100;BME280;76724;47.496;19.064;2024-03-23T13:27:52;99359.38;;;20.29;32.11
86100;BME280;76724;47.496;19.064;2024-03-23T13:28:25;99365.81;;;20.28;31.85
86100;BME280;76724;47.496;19.064;2024-03-23T13:28:57;99368.22;;;20.25;32.52
86100;BME280;76724;47.496;19.064;2024-03-23T13:29:30;99366.91;;;20.27;31.86
86100;BME280;76724;47.496;19.064;2024-03-23T13:30:03;99363.00;;;20.13;32.41
86100;BME280;76724;47.496;19.064;2024-03-23T13:30:36;99361.66;;;20.10;32.23
86100;BME280;76724;47.496;19.064;2024-03-23T13:31:09;99357.38;;;20.15;32.53
86100;BME280;76724;47.496;19.064;2024-03-23T13:31:42;99369.56;;;20.22;32.24
86100;BME280;76724;47.496;19.064;2024-03-23T13:32:14;99363.13;;;20.28;31.71
86100;BME280;76724;47.496;19.064;2024-03-23T13:32:50;99366.84;;;20.22;32.03
86100;BME280;76724;47.496;19.064;2024-03-23T13:33:23;99358.44;;;20.13;32.35
86100;BME280;76724;47.496;19.064;2024-03-23T13:33:56;99365.19;;;20.16;32.27
86100;BME280;76724;47.496;19.064;2024-03-23T13:34:29;99360.94;;;20.20;32.49
86100;BME280;76724;47.496;19.064;2024-03-23T13:35:02;99366.56;;;20.19;32.56
86100;BME280;76724;47.496;19.064;2024-03-23T13:35:35;99363.28;;;20.11;32.16
86100;BME280;76724;47.496;19.064;2024-03-23T13:36:08;99362.16;;;20.07;32.38
86100;BME280;76724;47.496;19.064;2024-03-23T13:36:41;99357.81;;;20.01;32.97
86100;BME280;76724;47.496;19.064;2024-03-23T13:37:14;99360.81;;;20.05;32.48
86100;BME280;76724;47.496;19.064;2024-03-23T13:37:47;99350.31;;;20.03;32.46
86100;BME280;76724;47.496;19.064;2024-03-23T13:38:21;99357.09;;;20.11;32.29
86100;BME280;76724;47.496;19.064;2024-03-23T13:38:53;99348.16;;;20.05;32.27
86100;BME280;76724;47.496;19.064;2024-03-23T13:39:26;99355.69;;;20.03;32.83
86100;BME280;76724;47.496;19.064;2024-03-23T13:40:02;99353.22;;;19.97;32.81
86100;BME280;76724;47.496;19.064;2024-03-23T13:40:35;99358.59;;;20.02;32.43
86100;BME280;76724;47.496;19.064;2024-03-23T13:41:10;99351.56;;;19.96;32.95
86100;BME280;76724;47.496;19.064;2024-03-23T13:41:45;99348.13;;;20.00;32.88
86100;BME280;76724;47.496;19.064;2024-03-23T13:42:18;99353.03;;;20.08;32.47
86100;BME280;76724;47.496;19.064;2024-03-23T13:42:51;99352.50;;;20.11;32.65
86100;BME280;76724;47.496;19.064;2024-03-23T13:43:25;99351.16;;;20.09;32.00
86100;BME280;76724;47.496;19.064;2024-03-23T13:44:01;99350.34;;;20.08;32.56
86100;BME280;76724;47.496;19.064;2024-03-23T13:44:34;99347.66;;;20.13;32.16
86100;BME280;76724;47.496;19.064;2024-03-23T13:45:07;99349.69;;;19.96;32.34
86100;BME280;76724;47.496;19.064;2024-03-23T13:45:46;99346.75;;;19.98;32.66
86100;BME280;76724;47.496;19.064;2024-03-23T13:46:19;99343.03;;;20.04;32.26
86100;BME280;76724;47.496;19.064;2024-03-23T13:46:52;99338.44;;;19.99;32.22
86100;BME280;76724;47.496;19.064;2024-03-23T13:47:25;99338.69;;;19.98;32.69
86100;BME280;76724;47.496;19.064;2024-03-23T13:47:58;99333.34;;;20.08;31.89
86100;BME280;76724;47.496;19.064;2024-03-23T13:48:31;99344.91;;;20.03;31.91
86100;BME280;76724;47.496;19.064;2024-03-23T13:49:07;99345.72;;;20.04;32.31
86100;BME280;76724;47.496;19.064;2024-03-23T13:49:39;99348.88;;;19.96;32.54
86100;BME280;76724;47.496;19.064;2024-03-23T13:50:12;99333.25;;;19.93;32.59
86100;BME280;76724;47.496;19.064;2024-03-23T13:50:45;99337.31;;;19.95;32.73
86100;BME280;76724;47.496;19.064;2024-03-23T13:51:24;99334.66;;;20.00;32.46
86100;BME280;76724;47.496;19.064;2024-03-23T13:52:00;99338.16;;;20.01;32.38
86100;BME280;76724;47.496;19.064;2024-03-23T13:52:32;99335.19;;;20.02;32.53
86100;BME280;76724;47.496;19.064;2024-03-23T13:53:06;99337.09;;;20.02;32.45
86100;BME280;76724;47.496;19.064;2024-03-23T13:53:42;99330.31;;;19.94;33.21
86100;BME280;76724;47.496;19.064;2024-03-23T13:54:15;99340.84;;;20.01;32.50
86100;BME280;76724;47.496;19.064;2024-03-23T13:54:48;99337.66;;;20.04;32.43
86100;BME280;76724;47.496;19.064;2024-03-23T13:55:21;99335.47;;;20.01;32.64
86100;BME280;76724;47.496;19.064;2024-03-23T13:55:54;99337.03;;;19.92;33.12
86100;BME280;76724;47.496;19.064;2024-03-23T13:56:29;99335.38;;;19.91;33.07
86100;BME280;76724;47.496;19.064;2024-03-23T13:57:02;99331.34;;;19.88;33.11
86100;BME280;76724;47.496;19.064;2024-03-23T13:57:35;99328.66;;;19.88;33.29
86100;BME280;76724;47.496;19.064;2024-03-23T13:58:08;99336.41;;;19.84;33.29
86100;BME280;76724;47.496;19.064;2024-03-23T13:58:43;99323.47;;;19.81;32.96
86100;BME280;76724;47.496;19.064;2024-03-23T13:59:19;99336.41;;;19.84;33.31
86100;BME280;76724;47.496;19.064;2024-03-23T13:59:52;99324.03;;;19.83;33.47
86100;BME280;76724;47.496;19.064;2024-03-23T14:00:24;99328.09;;;19.86;33.19
86100;BME280;76724;47.496;19.064;2024-03-23T14:00:57;99332.44;;;19.92;33.40
86100;BME280;76724;47.496;19.064;2024-03-23T14:01:30;99327.56;;;19.89;33.30
86100;BME280;76724;47.496;19.064;2024-03-23T14:02:04;99325.69;;;19.90;33.29
86100;BME280;76724;47.496;19.064;2024-03-23T14:02:37;99333.53;;;19.91;33.16
86100;BME280;76724;47.496;19.064;2024-03-23T14:03:28;99320.56;;;19.88;33.35
86100;BME280;76724;47.496;19.064;2024-03-23T14:04:02;99322.50;;;19.93;33.38
86100;BME280;76724;47.496;19.064;2024-03-23T14:04:34;99326.31;;;19.97;33.04
86100;BME280;76724;47.496;19.064;2024-03-23T14:05:07;99329.00;;;20.02;33.02
86100;BME280;76724;47.496;19.064;2024-03-23T14:05:41;99329.59;;;20.04;33.44
86100;BME280;76724;47.496;19.064;2024-03-23T14:06:14;99329.28;;;20.00;32.92
86100;BME280;76724;47.496;19.064;2024-03-23T14:06:47;99323.09;;;20.00;33.25
86100;BME280;76724;47.496;19.064;2024-03-23T14:07:20;99315.81;;;20.00;33.01
86100;BME280;76724;47.496;19.064;2024-03-23T14:07:53;99324.44;;;20.02;33.44
86100;BME280;76724;47.496;19.064;2024-03-23T14:08:25;99323.13;;;20.05;33.13
86100;BME280;76724;47.496;19.064;2024-03-23T14:08:58;99322.06;;;20.06;32.80
86100;BME280;76724;47.496;19.064;2024-03-23T14:09:31;99313.69;;;20.02;33.03
86100;BME280;76724;47.496;19.064;2024-03-23T14:10:05;99317.44;;;20.01;33.40
86100;BME280;76724;47.496;19.064;2024-03-23T14:10:42;99321.47;;;19.99;33.12
86100;BME280;76724;47.496;19.064;2024-03-23T14:11:15;99323.91;;;20.00;33.36
86100;BME280;76724;47.496;19.064;2024-03-23T14:11:47;99320.94;;;20.02;33.25
86100;BME280;76724;47.496;19.064;2024-03-23T14:12:20;99316.38;;;20.02;33.38
86100;BME280;76724;47.496;19.064;2024-03-23T14:12:53;99320.41;;;20.00;33.56
